Kang Hong — VRBA8 — position and weather

sailwx.info

Track history (hours):
 
Tides and Currents Weather Stations Pressure Air Temp Water Temp Dewpoint Dewpoint Depression Visibility Wind Speed Wind Dir Waves Ship Positions

Kang Hong

Last reported at 2018-Jan-12 01:39 UTC. Time now 2018-Jan-18 21:39 UTC.
Position N 36°06' W 004°28'.

Length 190 m; draft 12.2 m.

Type: Cargo ship. MMSI: 477995400.

Date/timePositionNaut miles runAvg speedWind from/ knotsBaromVisibWave heightAir tempDewpointWater temp
2018-Jan-12 01:39N 36°06' W 004°28'215.4
2018-Jan-12 01:30N 36°06' W 004°31'1015.3
2018-Jan-12 00:52N 36°04' W 004°42'513.7
2018-Jan-12 00:30N 36°04' W 004°49'916.7
2018-Jan-11 23:59N 36°03' W 004°59'714.6
2018-Jan-11 23:30N 36°03' W 005°08'714.8
2018-Jan-11 23:00N 36°04' W 005°17'510.0
2018-Jan-11 22:30N 36°06' W 005°23'2 3.4
2018-Jan-11 21:59N 36°07' W 005°21'0 0.0
2018-Jan-11 21:29N 36°07' W 005°21'0 0.1
2018-Jan-11 21:00N 36°07' W 005°21'0 0.1
2018-Jan-11 20:30N 36°07' W 005°21'0 0.2
2018-Jan-11 20:00N 36°07' W 005°21'0 0.1
2018-Jan-11 19:28N 36°07' W 005°22'0 0.0
2018-Jan-11 18:59N 36°07' W 005°22'0 0.3
2018-Jan-11 18:27N 36°07' W 005°21'0 0.2
2018-Jan-11 18:00N 36°07' W 005°22'0 0.1
2018-Jan-11 17:29N 36°07' W 005°21'0 0.0
2018-Jan-11 16:59N 36°07' W 005°21'0 0.0
2018-Jan-11 16:29N 36°07' W 005°21'0 0.1
2018-Jan-11 15:59N 36°07' W 005°21'0 0.0
2018-Jan-11 15:28N 36°07' W 005°21'0 0.1
2018-Jan-11 15:00N 36°07' W 005°22'0 0.1
2018-Jan-11 14:30N 36°07' W 005°22'0 0.1
2018-Jan-11 14:00N 36°07' W 005°22'0 0.1
2018-Jan-11 13:30N 36°07' W 005°21'0 0.2
2018-Jan-11 13:00N 36°07' W 005°22'1 1.4
2018-Jan-11 12:30N 36°06' W 005°22'2 4.1
2018-Jan-11 12:00N 36°05' W 005°20'1 2.7
2018-Jan-11 11:30N 36°04' W 005°18'1 1.5
2018-Jan-11 11:00N 36°04' W 005°18'1 2.2
2018-Jan-11 10:30N 36°03' W 005°17'1 1.5
2018-Jan-11 10:00N 36°03' W 005°18'1 2.5
2018-Jan-11 09:30N 36°03' W 005°19'3 6.6
2018-Jan-11 09:00N 36°00' W 005°22'510.1
2018-Jan-11 08:30N 35°58' W 005°27'612.4
2018-Jan-11 08:00N 35°56' W 005°35'611.5
2018-Jan-11 07:30N 35°55' W 005°42'4 7.6
2018-Jan-11 06:59N 35°55' W 005°47'612.2
2018-Jan-11 06:30N 35°54' W 005°54'915.1
2018-Jan-11 05:56N 35°54' W 006°04'410.3
2018-Jan-11 05:30N 35°54' W 006°10'  
2018-Jan-08 09:47N 38°49' W 024°04'413.0
2018-Jan-08 09:28N 38°50' W 024°09'613.1
2018-Jan-08 09:00N 38°51' W 024°17'713.1
2018-Jan-08 08:29N 38°53' W 024°25'612.9
2018-Jan-08 08:00N 38°54' W 024°33'713.2
2018-Jan-08 07:30N 38°55' W 024°41'813.1
2018-Jan-08 06:54N 38°57' W 024°51'1513.2
2018-Jan-08 05:48N 39°00' W 025°09'513.0
2018-Jan-08 05:26N 39°01' W 025°15'6812.8
2018-Jan-08 00:05N 39°16' W 026°41'212.9
2018-Jan-07 23:57N 39°16' W 026°44'912.8
2018-Jan-07 23:17N 39°18' W 026°54'712.8
2018-Jan-07 22:42N 39°20' W 027°04'313.1
2018-Jan-07 22:30N 39°20' W 027°07'713.1
2018-Jan-07 22:00N 39°22' W 027°15'713.2
2018-Jan-07 21:30N 39°23' W 027°23'713.1
2018-Jan-07 21:00N 39°24' W 027°32'713.4
2018-Jan-07 20:30N 39°26' W 027°40'713.1
2018-Jan-07 20:00N 39°27' W 027°49'613.0
2018-Jan-07 19:30N 39°29' W 027°57'713.3
2018-Jan-07 19:00N 39°30' W 028°05'713.1
2018-Jan-07 18:30N 39°32' W 028°13'713.1
2018-Jan-07 18:00N 39°33' W 028°22'713.2
2018-Jan-07 17:30N 39°34' W 028°30'713.2
2018-Jan-07 17:00N 39°36' W 028°39'612.8
2018-Jan-07 16:30N 39°37' W 028°47'612.9
2018-Jan-07 16:00N 39°39' W 028°55'612.9
2018-Jan-07 15:30N 39°40' W 029°03'612.9
2018-Jan-07 15:01N 39°41' W 029°11'713.1
2018-Jan-07 14:30N 39°43' W 029°20'713.0
2018-Jan-07 14:00N 39°44' W 029°28'612.7
2018-Jan-07 13:30N 39°46' W 029°36'612.5
2018-Jan-07 13:00N 39°47' W 029°44'612.9
2018-Jan-07 12:30N 39°48' W 029°52'612.8
2018-Jan-07 12:00N 39°50' W 030°00'612.8
2018-Jan-07 11:31N 39°51' W 030°08'612.8
2018-Jan-07 11:00N 39°53' W 030°16'  
Track history (hours):
 
Tides and Currents Weather Stations Pressure Air Temp Water Temp Dewpoint Dewpoint Depression Visibility Wind Speed Wind Dir Waves Ship Positions

Kang Hong

Last reported at 2018-Jan-12 01:39 UTC. Time now 2018-Jan-18 21:39 UTC.
Position N 36°06' W 004°28'.

Length 190 m; draft 12.2 m.

Type: Cargo ship. MMSI: 477995400.

Date/timePositionNaut miles runAvg speedWind from/ knotsBaromVisibWave heightAir tempDewpointWater temp
2018-Jan-12 01:39N 36°06' W 004°28'215.4
2018-Jan-12 01:30N 36°06' W 004°31'1015.3
2018-Jan-12 00:52N 36°04' W 004°42'513.7
2018-Jan-12 00:30N 36°04' W 004°49'916.7
2018-Jan-11 23:59N 36°03' W 004°59'714.6
2018-Jan-11 23:30N 36°03' W 005°08'714.8
2018-Jan-11 23:00N 36°04' W 005°17'510.0
2018-Jan-11 22:30N 36°06' W 005°23'2 3.4
2018-Jan-11 21:59N 36°07' W 005°21'0 0.0
2018-Jan-11 21:29N 36°07' W 005°21'0 0.1
2018-Jan-11 21:00N 36°07' W 005°21'0 0.1
2018-Jan-11 20:30N 36°07' W 005°21'0 0.2
2018-Jan-11 20:00N 36°07' W 005°21'0 0.1
2018-Jan-11 19:28N 36°07' W 005°22'0 0.0
2018-Jan-11 18:59N 36°07' W 005°22'0 0.3
2018-Jan-11 18:27N 36°07' W 005°21'0 0.2
2018-Jan-11 18:00N 36°07' W 005°22'0 0.1
2018-Jan-11 17:29N 36°07' W 005°21'0 0.0
2018-Jan-11 16:59N 36°07' W 005°21'0 0.0
2018-Jan-11 16:29N 36°07' W 005°21'0 0.1
2018-Jan-11 15:59N 36°07' W 005°21'0 0.0
2018-Jan-11 15:28N 36°07' W 005°21'0 0.1
2018-Jan-11 15:00N 36°07' W 005°22'0 0.1
2018-Jan-11 14:30N 36°07' W 005°22'0 0.1
2018-Jan-11 14:00N 36°07' W 005°22'0 0.1
2018-Jan-11 13:30N 36°07' W 005°21'0 0.2
2018-Jan-11 13:00N 36°07' W 005°22'1 1.4
2018-Jan-11 12:30N 36°06' W 005°22'2 4.1
2018-Jan-11 12:00N 36°05' W 005°20'1 2.7
2018-Jan-11 11:30N 36°04' W 005°18'1 1.5
2018-Jan-11 11:00N 36°04' W 005°18'1 2.2
2018-Jan-11 10:30N 36°03' W 005°17'1 1.5
2018-Jan-11 10:00N 36°03' W 005°18'1 2.5
2018-Jan-11 09:30N 36°03' W 005°19'3 6.6
2018-Jan-11 09:00N 36°00' W 005°22'510.1
2018-Jan-11 08:30N 35°58' W 005°27'612.4
2018-Jan-11 08:00N 35°56' W 005°35'611.5
2018-Jan-11 07:30N 35°55' W 005°42'4 7.6
2018-Jan-11 06:59N 35°55' W 005°47'612.2
2018-Jan-11 06:30N 35°54' W 005°54'915.1
2018-Jan-11 05:56N 35°54' W 006°04'410.3
2018-Jan-11 05:30N 35°54' W 006°10'  
2018-Jan-08 09:47N 38°49' W 024°04'413.0
2018-Jan-08 09:28N 38°50' W 024°09'613.1
2018-Jan-08 09:00N 38°51' W 024°17'713.1
2018-Jan-08 08:29N 38°53' W 024°25'612.9
2018-Jan-08 08:00N 38°54' W 024°33'713.2
2018-Jan-08 07:30N 38°55' W 024°41'813.1
2018-Jan-08 06:54N 38°57' W 024°51'1513.2
2018-Jan-08 05:48N 39°00' W 025°09'513.0
2018-Jan-08 05:26N 39°01' W 025°15'6812.8
2018-Jan-08 00:05N 39°16' W 026°41'212.9
2018-Jan-07 23:57N 39°16' W 026°44'912.8
2018-Jan-07 23:17N 39°18' W 026°54'712.8
2018-Jan-07 22:42N 39°20' W 027°04'313.1
2018-Jan-07 22:30N 39°20' W 027°07'713.1
2018-Jan-07 22:00N 39°22' W 027°15'713.2
2018-Jan-07 21:30N 39°23' W 027°23'713.1
2018-Jan-07 21:00N 39°24' W 027°32'713.4
2018-Jan-07 20:30N 39°26' W 027°40'713.1
2018-Jan-07 20:00N 39°27' W 027°49'613.0
2018-Jan-07 19:30N 39°29' W 027°57'713.3
2018-Jan-07 19:00N 39°30' W 028°05'713.1
2018-Jan-07 18:30N 39°32' W 028°13'713.1
2018-Jan-07 18:00N 39°33' W 028°22'713.2
2018-Jan-07 17:30N 39°34' W 028°30'713.2
2018-Jan-07 17:00N 39°36' W 028°39'612.8
2018-Jan-07 16:30N 39°37' W 028°47'612.9
2018-Jan-07 16:00N 39°39' W 028°55'612.9
2018-Jan-07 15:30N 39°40' W 029°03'612.9
2018-Jan-07 15:01N 39°41' W 029°11'713.1
2018-Jan-07 14:30N 39°43' W 029°20'713.0
2018-Jan-07 14:00N 39°44' W 029°28'612.7
2018-Jan-07 13:30N 39°46' W 029°36'612.5
2018-Jan-07 13:00N 39°47' W 029°44'612.9
2018-Jan-07 12:30N 39°48' W 029°52'612.8
2018-Jan-07 12:00N 39°50' W 030°00'612.8
2018-Jan-07 11:31N 39°51' W 030°08'612.8
2018-Jan-07 11:00N 39°53' W 030°16'  

Dump ship's entire track history